Time;durP1;ratioP1;P1;durP2;ratioP2;P2;SDS_P1;SDS_P2;PMS_P1;PMS_P2;Temp;Humidity;BMP_temperature;BMP_pressure;BME280_temperature;BME280_humidity;BME280_pressure;Samples;Min_cycle;Max_cycle;Signal;HPM_P1;HPM_P2
2024/01/29 00:00:31;;;;;;;16.37;8.70;;;1.30;99.90;;;;;;4226684;28;20333;-59
2024/01/29 00:02:32;;;;;;;14.67;9.23;;;1.30;99.90;;;;;;4228467;27;20322;-61
2024/01/29 00:04:33;;;;;;;18.40;9.87;;;1.40;99.90;;;;;;4228526;28;20665;-59
2024/01/29 00:06:35;;;;;;;15.03;7.97;;;1.40;99.90;;;;;;4228509;28;20361;-59
2024/01/29 00:08:36;;;;;;;14.40;7.70;;;1.40;99.90;;;;;;4228663;28;20265;-60
2024/01/29 00:10:37;;;;;;;13.37;7.03;;;1.40;99.90;;;;;;4228137;27;20264;-58
2024/01/29 00:12:38;;;;;;;11.97;7.13;;;1.40;99.90;;;;;;4228641;28;20761;-59
2024/01/29 00:14:40;;;;;;;12.17;6.13;;;1.40;99.90;;;;;;4227894;28;20313;-59
2024/01/29 00:16:41;;;;;;;14.27;7.17;;;1.40;99.90;;;;;;4228982;27;20345;-59
2024/01/29 00:18:42;;;;;;;13.43;6.80;;;1.40;99.90;;;;;;4228454;28;20268;-58
2024/01/29 00:20:43;;;;;;;13.60;7.17;;;1.30;99.90;;;;;;4228738;28;20281;-59
2024/01/29 00:22:44;;;;;;;18.03;7.27;;;1.30;99.90;;;;;;4227537;28;20669;-58
2024/01/29 00:24:46;;;;;;;11.70;6.93;;;1.30;99.90;;;;;;4228983;27;20329;-59
2024/01/29 00:26:50;;;;;;;14.13;8.07;;;1.30;99.90;;;;;;4227529;28;20737;-58
2024/01/29 00:28:51;;;;;;;15.20;8.17;;;1.30;99.90;;;;;;4228338;28;20674;-58
2024/01/29 00:30:52;;;;;;;14.03;7.83;;;1.20;99.90;;;;;;4226190;28;20650;-60
2024/01/29 00:32:53;;;;;;;15.50;8.43;;;1.20;99.90;;;;;;4228349;28;20309;-58
2024/01/29 00:34:55;;;;;;;15.33;8.20;;;1.20;99.90;;;;;;4227835;28;20736;-60
2024/01/29 00:36:56;;;;;;;22.17;8.43;;;1.20;99.90;;;;;;4228238;28;20357;-56
2024/01/29 00:38:57;;;;;;;21.83;10.00;;;1.20;99.90;;;;;;4228057;28;20774;-59
2024/01/29 00:40:59;;;;;;;16.50;9.30;;;1.10;99.90;;;;;;4227675;28;20313;-58
2024/01/29 00:43:02;;;;;;;22.10;10.20;;;1.10;99.90;;;;;;4228378;28;20256;-59
2024/01/29 00:45:04;;;;;;;18.50;8.17;;;1.10;99.90;;;;;;4227392;28;21420;-59
2024/01/29 00:47:05;;;;;;;19.87;9.13;;;1.00;99.90;;;;;;4228613;28;20267;-58
2024/01/29 00:49:06;;;;;;;20.37;8.83;;;1.00;99.90;;;;;;4227992;27;20272;-58
2024/01/29 00:51:07;;;;;;;17.20;8.70;;;1.00;99.90;;;;;;4228356;28;20658;-59
2024/01/29 00:53:09;;;;;;;20.37;9.57;;;1.00;99.90;;;;;;4227325;28;20244;-56
2024/01/29 00:55:10;;;;;;;17.93;9.33;;;0.90;99.90;;;;;;4228466;28;20328;-58
2024/01/29 00:57:13;;;;;;;20.10;8.97;;;0.90;99.90;;;;;;4226727;28;20292;-58
2024/01/29 00:59:14;;;;;;;23.10;9.70;;;0.90;99.90;;;;;;4228455;28;20263;-58
2024/01/29 01:01:16;;;;;;;19.90;10.53;;;0.90;99.90;;;;;;4227373;28;20264;-59
2024/01/29 01:03:17;;;;;;;17.43;8.90;;;0.90;99.90;;;;;;4228310;28;20797;-60
2024/01/29 01:05:20;;;;;;;21.60;9.93;;;1.00;99.90;;;;;;4227360;28;20302;-59
2024/01/29 01:07:21;;;;;;;21.40;9.20;;;1.00;99.90;;;;;;4227518;28;20276;-59
2024/01/29 01:09:22;;;;;;;20.87;9.70;;;1.00;99.90;;;;;;4225803;28;20252;-58
2024/01/29 01:11:23;;;;;;;19.33;10.60;;;1.10;99.90;;;;;;4227894;28;20264;-61
2024/01/29 01:13:24;;;;;;;21.33;10.77;;;1.10;99.90;;;;;;4227685;28;20312;-58
2024/01/29 01:15:26;;;;;;;17.80;10.43;;;1.10;99.90;;;;;;4227325;28;20267;-56
2024/01/29 01:17:27;;;;;;;20.50;10.80;;;1.00;99.90;;;;;;4209919;28;21268;-58
2024/01/29 01:19:28;;;;;;;22.60;10.30;;;1.10;99.90;;;;;;4227166;28;20264;-56
2024/01/29 01:21:29;;;;;;;25.97;11.13;;;1.10;99.90;;;;;;4228317;28;20682;-56
2024/01/29 01:23:30;;;;;;;22.67;11.20;;;1.10;99.90;;;;;;4227094;28;20260;-59
2024/01/29 01:25:31;;;;;;;24.40;11.77;;;1.00;99.90;;;;;;4228392;28;20252;-58
2024/01/29 01:27:33;;;;;;;21.77;12.07;;;1.00;99.90;;;;;;4226654;28;20268;-58
2024/01/29 01:29:34;;;;;;;23.53;11.23;;;1.00;99.90;;;;;;4227870;28;20260;-60
2024/01/29 01:31:35;;;;;;;19.73;10.53;;;0.90;99.90;;;;;;4226881;28;20713;-59
2024/01/29 01:33:36;;;;;;;22.57;10.17;;;0.80;99.90;;;;;;4228143;28;20272;-60
2024/01/29 01:35:37;;;;;;;18.93;8.80;;;0.70;99.90;;;;;;4226868;28;20716;-56
2024/01/29 01:37:39;;;;;;;16.93;9.20;;;0.70;99.90;;;;;;4228090;28;20299;-57
2024/01/29 01:39:40;;;;;;;14.87;7.53;;;0.60;99.90;;;;;;4227336;28;20302;-58
2024/01/29 01:41:50;;;;;;;13.70;6.53;;;0.50;99.90;;;;;;4227759;28;20321;-59
2024/01/29 01:43:51;;;;;;;16.80;6.57;;;0.40;99.90;;;;;;4226091;28;20785;-59
2024/01/29 01:46:04;;;;;;;13.93;7.60;;;0.30;99.90;;;;;;4226938;28;20487;-59
2024/01/29 01:48:06;;;;;;;15.63;7.53;;;0.20;99.90;;;;;;4226397;28;20325;-59
2024/01/29 01:50:09;;;;;;;16.27;7.10;;;0.10;99.90;;;;;;4227921;28;20264;-58
2024/01/29 01:52:11;;;;;;;15.90;7.70;;;0.10;99.90;;;;;;4227680;28;20285;-59
2024/01/29 01:54:13;;;;;;;14.23;7.37;;;0.10;99.90;;;;;;4227100;28;20907;-59
2024/01/29 01:56:15;;;;;;;15.70;8.23;;;0.10;99.90;;;;;;4227773;28;20310;-58
2024/01/29 01:58:18;;;;;;;18.17;9.37;;;0.10;99.90;;;;;;4226614;28;20665;-59
2024/01/29 02:00:20;;;;;;;16.87;8.40;;;0.00;99.90;;;;;;4227589;28;20321;-59
2024/01/29 02:02:22;;;;;;;17.53;9.67;;;0.00;99.90;;;;;;4226668;28;20268;-58
2024/01/29 02:04:23;;;;;;;19.93;9.47;;;0.10;99.90;;;;;;4228060;28;20272;-57
2024/01/29 02:06:25;;;;;;;20.90;11.43;;;0.10;99.90;;;;;;4226502;28;20272;-59
2024/01/29 02:08:26;;;;;;;21.13;11.57;;;0.00;99.90;;;;;;4228042;28;20329;-57
2024/01/29 02:10:27;;;;;;;24.50;11.37;;;0.00;99.90;;;;;;4228772;28;20272;-59
2024/01/29 02:12:29;;;;;;;20.43;10.90;;;0.00;99.90;;;;;;4231169;27;20321;-57
2024/01/29 02:14:30;;;;;;;23.13;11.87;;;0.00;99.90;;;;;;4229838;28;20256;-60
2024/01/29 02:16:31;;;;;;;24.13;12.57;;;-0.10;99.90;;;;;;4230625;27;20276;-57
2024/01/29 02:18:33;;;;;;;24.20;11.97;;;-0.10;99.90;;;;;;4230036;28;20276;-58
2024/01/29 02:20:35;;;;;;;24.07;11.87;;;-0.10;99.90;;;;;;4230871;28;20313;-60
2024/01/29 02:22:44;;;;;;;26.23;12.73;;;-0.10;99.90;;;;;;4230092;28;20636;-57
2024/01/29 02:24:46;;;;;;;22.87;12.90;;;-0.20;99.90;;;;;;4229882;28;20816;-58
2024/01/29 02:26:49;;;;;;;24.67;12.37;;;-0.20;99.90;;;;;;4230327;28;20771;-56
2024/01/29 02:28:50;;;;;;;24.90;12.13;;;-0.30;99.90;;;;;;4229465;28;20732;-60
2024/01/29 02:30:51;;;;;;;25.33;12.23;;;-0.30;99.90;;;;;;4230309;27;20260;-55
2024/01/29 02:32:52;;;;;;;19.73;12.20;;;-0.40;99.90;;;;;;4229516;28;20268;-59
2024/01/29 02:34:53;;;;;;;21.73;12.13;;;-0.40;99.90;;;;;;4230814;27;20732;-57
2024/01/29 02:36:54;;;;;;;21.00;11.47;;;-0.40;99.90;;;;;;4229235;28;20666;-57
2024/01/29 02:38:55;;;;;;;18.70;10.80;;;-0.50;99.90;;;;;;4230611;27;20858;-59
2024/01/29 02:40:57;;;;;;;18.47;10.37;;;-0.60;99.90;;;;;;4229348;28;20779;-58
2024/01/29 02:42:58;;;;;;;23.50;11.20;;;-0.60;99.90;;;;;;4230610;27;20650;-58
2024/01/29 02:44:59;;;;;;;18.30;11.10;;;-0.60;99.90;;;;;;4229255;28;20658;-58
2024/01/29 02:47:00;;;;;;;21.57;10.80;;;-0.60;99.90;;;;;;4230148;28;20325;-57
2024/01/29 02:49:01;;;;;;;22.07;11.00;;;-0.60;99.90;;;;;;4229232;28;20263;-59
2024/01/29 02:51:03;;;;;;;20.80;10.07;;;-0.70;99.90;;;;;;4230560;27;21260;-58
2024/01/29 02:53:04;;;;;;;19.57;10.77;;;-0.70;99.90;;;;;;4229259;28;20736;-59
2024/01/29 02:55:05;;;;;;;29.10;12.07;;;-0.70;99.90;;;;;;4229756;28;20309;-57
2024/01/29 02:57:07;;;;;;;23.60;11.53;;;-0.70;99.90;;;;;;4229621;27;20638;-57
2024/01/29 02:59:08;;;;;;;26.07;12.60;;;-0.70;99.90;;;;;;4229535;27;20321;-58
2024/01/29 03:01:09;;;;;;;24.10;12.53;;;-0.80;99.90;;;;;;4229822;28;20732;-59
2024/01/29 03:03:11;;;;;;;24.73;11.60;;;-0.80;99.90;;;;;;4228361;28;20260;-59
2024/01/29 03:05:12;;;;;;;22.47;11.90;;;-0.80;99.90;;;;;;4230010;28;20340;-57
2024/01/29 03:07:13;;;;;;;22.20;11.30;;;-0.80;99.90;;;;;;4228640;28;20264;-56
2024/01/29 03:09:14;;;;;;;22.00;11.80;;;-0.70;99.90;;;;;;4230713;27;20825;-57
2024/01/29 03:11:16;;;;;;;24.67;12.30;;;-0.80;99.90;;;;;;4228868;27;20329;-58
2024/01/29 03:13:18;;;;;;;22.87;12.63;;;-0.70;99.90;;;;;;4228717;27;20268;-57
2024/01/29 03:15:19;;;;;;;29.27;14.90;;;-0.70;99.90;;;;;;4228758;28;20666;-57
2024/01/29 03:17:20;;;;;;;26.73;13.50;;;-0.80;99.90;;;;;;4229843;27;20287;-57
2024/01/29 03:19:21;;;;;;;21.77;12.70;;;-0.80;99.90;;;;;;4228934;28;20313;-58
2024/01/29 03:21:23;;;;;;;28.10;14.47;;;-0.80;99.90;;;;;;4229543;28;20272;-55
2024/01/29 03:23:24;;;;;;;26.60;13.63;;;-0.90;99.90;;;;;;4228936;27;20280;-58
2024/01/29 03:25:25;;;;;;;25.23;14.07;;;-0.80;99.90;;;;;;4229666;28;20268;-52
2024/01/29 03:27:26;;;;;;;24.63;13.07;;;-0.80;99.90;;;;;;4228767;28;20308;-58
2024/01/29 03:29:28;;;;;;;29.27;14.73;;;-0.80;99.90;;;;;;4229085;28;20268;-56
2024/01/29 03:31:29;;;;;;;27.17;14.13;;;-0.80;99.90;;;;;;4229185;28;20317;-58
2024/01/29 03:33:30;;;;;;;24.10;13.07;;;-0.80;99.90;;;;;;4228541;27;20256;-58
2024/01/29 03:35:31;;;;;;;27.23;13.40;;;-0.80;99.90;;;;;;4229467;28;20264;-59
2024/01/29 03:37:32;;;;;;;29.37;14.37;;;-0.80;99.90;;;;;;4228425;27;20308;-58
2024/01/29 03:39:33;;;;;;;26.50;13.97;;;-0.80;99.90;;;;;;4229456;28;20312;-59
2024/01/29 03:41:35;;;;;;;25.33;13.93;;;-0.80;99.90;;;;;;4218420;28;20267;-57
2024/01/29 03:43:36;;;;;;;25.83;13.10;;;-0.80;99.90;;;;;;4229442;27;20276;-58
2024/01/29 03:45:37;;;;;;;27.23;12.43;;;-0.80;99.90;;;;;;4228448;27;20785;-57
2024/01/29 03:47:38;;;;;;;27.50;14.13;;;-0.80;99.90;;;;;;4229256;28;20305;-55
2024/01/29 03:49:39;;;;;;;25.93;13.97;;;-0.80;99.90;;;;;;4228559;27;20310;-57
2024/01/29 03:51:41;;;;;;;24.57;13.07;;;-0.80;99.90;;;;;;4229589;28;20741;-58
2024/01/29 03:53:42;;;;;;;23.80;11.87;;;-0.80;99.90;;;;;;4228165;28;20648;-59
2024/01/29 03:55:43;;;;;;;32.47;15.00;;;-0.80;99.90;;;;;;4229225;27;20264;-59
2024/01/29 03:57:45;;;;;;;27.43;13.43;;;-0.80;99.90;;;;;;4228158;28;20292;-59
2024/01/29 03:59:46;;;;;;;24.53;12.67;;;-0.80;99.90;;;;;;4228427;28;20326;-59
2024/01/29 04:01:48;;;;;;;20.30;12.23;;;-0.80;99.90;;;;;;4228241;28;20678;-59
2024/01/29 04:03:49;;;;;;;26.47;12.90;;;-0.90;99.90;;;;;;4228395;28;20252;-59
2024/01/29 04:05:51;;;;;;;21.23;11.27;;;-0.90;99.90;;;;;;4228903;27;20280;-58
2024/01/29 04:07:53;;;;;;;20.40;11.00;;;-0.90;99.90;;;;;;4209821;28;20291;-59
2024/01/29 04:09:54;;;;;;;21.27;12.57;;;-0.90;99.90;;;;;;4229197;27;20301;-59
2024/01/29 04:11:55;;;;;;;25.43;12.13;;;-0.90;99.90;;;;;;4227080;28;20321;-59
2024/01/29 04:13:56;;;;;;;20.53;12.13;;;-1.00;99.90;;;;;;4228967;28;20256;-59
2024/01/29 04:15:57;;;;;;;22.50;11.93;;;-1.00;99.90;;;;;;4227851;28;20724;-57
2024/01/29 04:17:59;;;;;;;25.93;12.20;;;-1.00;99.90;;;;;;4228837;28;20704;-60
2024/01/29 04:20:00;;;;;;;23.67;12.00;;;-1.10;99.90;;;;;;4227689;28;20276;-59
2024/01/29 04:22:01;;;;;;;21.50;12.47;;;-1.10;99.90;;;;;;4229075;27;20292;-59
2024/01/29 04:24:02;;;;;;;20.63;12.17;;;-1.10;99.90;;;;;;4227589;28;20345;-60
2024/01/29 04:26:03;;;;;;;25.10;12.17;;;-1.10;99.90;;;;;;4228268;28;20280;-60
2024/01/29 04:28:06;;;;;;;27.87;12.53;;;-1.10;99.90;;;;;;4227575;28;20351;-61
2024/01/29 04:30:08;;;;;;;24.77;12.53;;;-1.10;99.90;;;;;;4228582;27;20309;-60
2024/01/29 04:32:09;;;;;;;22.67;12.37;;;-1.10;99.90;;;;;;4227321;28;20247;-56
2024/01/29 04:34:10;;;;;;;25.23;12.77;;;-1.10;99.90;;;;;;4227996;28;20661;-59
2024/01/29 04:36:14;;;;;;;25.90;13.43;;;-1.10;99.90;;;;;;4228242;28;20732;-61
2024/01/29 04:38:15;;;;;;;23.43;12.40;;;-1.20;99.90;;;;;;4226376;28;20295;-58
2024/01/29 04:40:16;;;;;;;28.50;13.40;;;-1.20;99.90;;;;;;4228561;27;20264;-59
2024/01/29 04:42:18;;;;;;;28.77;14.50;;;-1.20;99.90;;;;;;4227106;27;20367;-59
2024/01/29 04:44:19;;;;;;;29.97;15.40;;;-1.20;99.90;;;;;;4228676;27;20264;-57
2024/01/29 04:46:20;;;;;;;30.60;15.77;;;-1.20;99.90;;;;;;4227583;28;20256;-58
2024/01/29 04:48:21;;;;;;;30.57;16.63;;;-1.30;99.90;;;;;;4228442;28;20251;-60
2024/01/29 04:50:22;;;;;;;26.90;15.23;;;-1.30;99.90;;;;;;4227459;28;20309;-60
2024/01/29 04:52:23;;;;;;;30.17;16.37;;;-1.30;99.90;;;;;;4228405;28;20264;-59
2024/01/29 04:54:25;;;;;;;28.27;16.07;;;-1.30;99.90;;;;;;4227063;28;20276;-61
2024/01/29 04:56:26;;;;;;;29.00;16.83;;;-1.30;99.90;;;;;;4228257;28;20272;-60
2024/01/29 04:58:27;;;;;;;29.60;15.30;;;-1.30;99.90;;;;;;4226640;28;20296;-61
2024/01/29 05:00:28;;;;;;;28.27;16.27;;;-1.30;99.90;;;;;;4221103;28;20647;-60
2024/01/29 05:02:29;;;;;;;32.53;16.07;;;-1.30;99.90;;;;;;4210231;28;20280;-60
2024/01/29 05:04:30;;;;;;;26.97;16.13;;;-1.30;99.90;;;;;;4211367;28;20276;-61
2024/01/29 05:06:31;;;;;;;27.50;15.43;;;-1.30;99.90;;;;;;4210632;28;20264;-61
2024/01/29 05:08:33;;;;;;;27.13;15.73;;;-1.30;99.90;;;;;;4210561;28;20733;-62
2024/01/29 05:10:34;;;;;;;32.40;16.07;;;-1.30;99.90;;;;;;4210750;28;20595;-62
2024/01/29 05:12:35;;;;;;;27.37;15.40;;;-1.30;99.90;;;;;;4210057;28;20277;-60
2024/01/29 05:14:36;;;;;;;25.93;14.50;;;-1.30;99.90;;;;;;4223840;28;20727;-59
2024/01/29 05:16:37;;;;;;;24.87;13.10;;;-1.30;99.90;;;;;;4226543;28;20717;-61
2024/01/29 05:18:38;;;;;;;24.93;13.30;;;-1.40;99.90;;;;;;4227866;28;20317;-62
2024/01/29 05:20:40;;;;;;;23.70;13.13;;;-1.40;99.90;;;;;;4225693;28;20848;-61
2024/01/29 05:22:43;;;;;;;27.63;15.43;;;-1.50;99.90;;;;;;4227240;28;20353;-60
2024/01/29 05:24:44;;;;;;;23.57;13.53;;;-1.40;99.90;;;;;;4226561;28;20276;-57
2024/01/29 05:26:45;;;;;;;22.00;12.40;;;-1.40;99.90;;;;;;4227942;28;20623;-60
2024/01/29 05:28:46;;;;;;;24.03;12.17;;;-1.50;99.90;;;;;;4226716;28;20313;-60
2024/01/29 05:30:50;;;;;;;21.47;12.10;;;-1.50;99.90;;;;;;4227759;28;20325;-60
2024/01/29 05:32:51;;;;;;;23.53;12.00;;;-1.50;99.90;;;;;;4226572;28;20333;-60
2024/01/29 05:34:53;;;;;;;22.80;11.47;;;-1.40;99.90;;;;;;4227385;28;20391;-58
2024/01/29 05:36:54;;;;;;;33.90;15.43;;;-1.40;99.90;;;;;;4226437;28;20264;-60
2024/01/29 05:38:55;;;;;;;41.43;20.20;;;-1.40;99.90;;;;;;4226772;28;20688;-58
2024/01/29 05:40:56;;;;;;;25.47;12.90;;;-1.30;99.90;;;;;;4211068;28;20284;-60
2024/01/29 05:42:57;;;;;;;18.60;11.37;;;-1.30;99.90;;;;;;4223880;28;20305;-61
2024/01/29 05:44:59;;;;;;;20.43;10.07;;;-1.30;99.90;;;;;;4229081;28;20359;-59
2024/01/29 05:47:00;;;;;;;22.87;9.53;;;-1.30;99.90;;;;;;4229970;28;20766;-58
2024/01/29 05:49:01;;;;;;;17.27;9.77;;;-1.20;99.90;;;;;;4231258;28;20264;-61
2024/01/29 05:51:02;;;;;;;20.97;10.73;;;-1.20;99.90;;;;;;4230130;28;20276;-61
2024/01/29 05:53:05;;;;;;;21.50;10.63;;;-1.30;99.90;;;;;;4230611;28;20743;-61
2024/01/29 05:55:06;;;;;;;28.20;13.37;;;-1.30;99.90;;;;;;4229836;28;20309;-61
2024/01/29 05:57:11;;;;;;;25.53;13.17;;;-1.30;99.90;;;;;;4230893;28;20272;-60
2024/01/29 05:59:12;;;;;;;21.97;11.47;;;-1.30;99.90;;;;;;4229825;28;20248;-60
2024/01/29 06:01:13;;;;;;;26.93;13.37;;;-1.30;99.90;;;;;;4231096;28;20256;-60
2024/01/29 06:03:14;;;;;;;36.87;16.30;;;-1.30;99.90;;;;;;4229770;27;20331;-60
2024/01/29 06:05:16;;;;;;;33.63;15.07;;;-1.30;99.90;;;;;;4230953;28;20658;-60
2024/01/29 06:07:17;;;;;;;30.90;14.80;;;-1.20;99.90;;;;;;4229799;28;20273;-60
2024/01/29 06:09:19;;;;;;;25.43;13.67;;;-1.00;99.90;;;;;;4230448;28;20313;-60
2024/01/29 06:11:20;;;;;;;30.03;15.30;;;-0.90;99.90;;;;;;4230055;28;20256;-60
2024/01/29 06:13:23;;;;;;;24.23;12.17;;;-0.70;99.90;;;;;;4230081;28;20789;-60
2024/01/29 06:15:25;;;;;;;22.40;11.97;;;-0.60;99.90;;;;;;4230011;28;20610;-60
2024/01/29 06:17:26;;;;;;;13.47;7.20;;;-0.30;99.90;;;;;;4229868;28;21060;-59
2024/01/29 06:19:29;;;;;;;12.83;8.07;;;-0.20;99.90;;;;;;4230389;28;20593;-59
2024/01/29 06:21:30;;;;;;;13.67;8.07;;;-0.10;99.90;;;;;;4229733;27;20275;-61
2024/01/29 06:23:31;;;;;;;13.53;7.50;;;-0.10;99.90;;;;;;4230805;28;20298;-59
2024/01/29 06:25:32;;;;;;;14.17;7.77;;;0.10;99.90;;;;;;4229859;28;20336;-60
2024/01/29 06:27:33;;;;;;;16.73;8.80;;;0.40;99.90;;;;;;4230653;27;20649;-59
2024/01/29 06:29:34;;;;;;;10.23;6.10;;;0.60;99.90;;;;;;4229473;27;20265;-61
2024/01/29 06:31:40;;;;;;;16.37;6.80;;;0.70;99.90;;;;;;4230374;28;21805;-60
2024/01/29 06:33:41;;;;;;;12.33;6.80;;;0.40;99.90;;;;;;4229304;27;20306;-61
2024/01/29 06:35:42;;;;;;;12.60;6.97;;;0.20;99.90;;;;;;4230369;28;20272;-59
2024/01/29 06:37:43;;;;;;;13.07;7.60;;;0.00;99.90;;;;;;4229122;28;20336;-59
2024/01/29 06:39:44;;;;;;;15.60;9.13;;;-0.20;99.90;;;;;;4230079;28;20293;-61
2024/01/29 06:41:46;;;;;;;17.70;8.77;;;-0.30;99.90;;;;;;4229027;28;20713;-57
2024/01/29 06:43:47;;;;;;;15.53;8.73;;;-0.40;99.90;;;;;;4229704;28;20666;-61
2024/01/29 06:45:49;;;;;;;14.37;8.57;;;-0.30;99.90;;;;;;4229632;27;20911;-60
2024/01/29 06:47:50;;;;;;;15.60;8.70;;;-0.20;99.90;;;;;;4229729;27;20329;-61
2024/01/29 06:49:51;;;;;;;18.00;8.10;;;-0.10;99.90;;;;;;4230132;28;20249;-61
2024/01/29 06:51:52;;;;;;;19.57;9.03;;;-0.10;99.90;;;;;;4229781;27;20321;-60
2024/01/29 06:53:54;;;;;;;16.87;7.90;;;-0.10;99.90;;;;;;4229994;28;20264;-61
2024/01/29 06:55:59;;;;;;;16.33;8.30;;;0.10;99.90;;;;;;4228695;27;20276;-60
2024/01/29 06:58:00;;;;;;;12.97;7.73;;;0.30;99.90;;;;;;4229536;28;20847;-60
2024/01/29 07:00:03;;;;;;;14.60;8.70;;;0.40;99.90;;;;;;4228793;27;20666;-59
2024/01/29 07:02:05;;;;;;;14.07;7.63;;;0.70;99.90;;;;;;4230188;27;20272;-59
2024/01/29 07:04:07;;;;;;;14.07;7.00;;;1.10;99.90;;;;;;4228694;28;20267;-58
2024/01/29 07:06:08;;;;;;;14.93;7.20;;;1.40;99.90;;;;;;4229901;28;20256;-61
2024/01/29 07:08:09;;;;;;;15.90;7.97;;;1.30;99.90;;;;;;4228773;28;20816;-61
2024/01/29 07:10:10;;;;;;;15.67;6.87;;;1.70;99.90;;;;;;4229983;27;20627;-60
2024/01/29 07:12:15;;;;;;;14.27;7.00;;;2.00;99.90;;;;;;4228428;28;20268;-60
2024/01/29 07:14:16;;;;;;;10.33;5.90;;;2.50;99.90;;;;;;4229652;28;20309;-61
2024/01/29 07:16:17;;;;;;;9.77;5.20;;;2.90;99.90;;;;;;4228668;28;20263;-59
2024/01/29 07:18:18;;;;;;;15.03;6.13;;;3.20;99.90;;;;;;4229424;28;20779;-62
2024/01/29 07:20:19;;;;;;;7.67;4.40;;;3.60;99.90;;;;;;4229155;27;20662;-61
2024/01/29 07:22:21;;;;;;;7.87;4.80;;;4.30;99.90;;;;;;4229207;27;20048;-61
2024/01/29 07:24:22;;;;;;;8.37;5.07;;;4.80;99.90;;;;;;4229273;27;20043;-60
2024/01/29 07:26:24;;;;;;;6.63;4.30;;;5.30;99.90;;;;;;4228546;28;20028;-60
2024/01/29 07:28:25;;;;;;;7.70;5.03;;;5.50;99.90;;;;;;4229289;28;20019;-63
2024/01/29 07:30:26;;;;;;;8.10;4.80;;;5.50;99.90;;;;;;4228299;27;20093;-59
2024/01/29 07:32:31;;;;;;;10.37;6.60;;;5.50;99.90;;;;;;4229740;28;20085;-60
2024/01/29 07:34:32;;;;;;;7.20;5.30;;;5.60;99.90;;;;;;4228575;28;20085;-60
2024/01/29 07:36:37;;;;;;;8.70;4.50;;;5.80;99.90;;;;;;4229613;27;20081;-61
2024/01/29 07:38:38;;;;;;;11.47;5.07;;;5.60;99.90;;;;;;4228192;28;20035;-59
2024/01/29 07:40:40;;;;;;;7.43;5.00;;;5.10;99.90;;;;;;4229674;27;20051;-60
2024/01/29 07:42:41;;;;;;;12.80;7.47;;;5.00;99.90;;;;;;4227957;28;20413;-60
2024/01/29 07:44:43;;;;;;;10.90;6.03;;;5.00;99.90;;;;;;4229260;28;20483;-61
2024/01/29 07:46:44;;;;;;;10.97;6.67;;;4.90;99.90;;;;;;4228198;28;20032;-61
2024/01/29 07:48:45;;;;;;;9.53;5.97;;;5.10;99.90;;;;;;4229518;28;20488;-60
2024/01/29 07:50:46;;;;;;;11.07;5.70;;;5.20;99.90;;;;;;4228480;28;20020;-61
2024/01/29 07:52:47;;;;;;;8.47;4.70;;;4.80;99.90;;;;;;4228881;28;20032;-61
2024/01/29 07:54:49;;;;;;;7.60;4.77;;;4.10;99.90;;;;;;4228769;27;20089;-61
2024/01/29 07:56:50;;;;;;;10.73;4.20;;;3.60;99.90;;;;;;4227323;28;20044;-60
2024/01/29 07:58:51;;;;;;;11.33;4.93;;;3.40;99.90;;;;;;4226759;28;20060;-58
2024/01/29 08:00:52;;;;;;;8.37;4.33;;;3.50;99.90;;;;;;4228170;27;20089;-61
2024/01/29 08:02:53;;;;;;;7.17;4.57;;;3.70;99.90;;;;;;4228761;28;20032;-61
2024/01/29 08:04:54;;;;;;;8.27;5.27;;;3.80;99.90;;;;;;4227672;28;20065;-59
2024/01/29 08:06:56;;;;;;;7.80;4.90;;;3.70;99.90;;;;;;4228874;27;20661;-60
2024/01/29 08:08:57;;;;;;;8.13;4.70;;;3.50;99.90;;;;;;4227465;28;20260;-60
2024/01/29 08:11:00;;;;;;;10.53;4.60;;;3.40;99.90;;;;;;4228920;28;20261;-59
2024/01/29 08:13:02;;;;;;;8.57;4.90;;;2.90;99.90;;;;;;4227478;28;20317;-60
2024/01/29 08:15:05;;;;;;;11.17;4.87;;;2.60;99.90;;;;;;4228829;28;20256;-57
2024/01/29 08:17:06;;;;;;;9.00;5.13;;;2.50;99.90;;;;;;4227494;28;20256;-59
2024/01/29 08:19:07;;;;;;;10.23;6.13;;;2.40;99.90;;;;;;4228536;28;20284;-60
2024/01/29 08:21:08;;;;;;;9.13;5.90;;;2.20;99.90;;;;;;4227990;28;20276;-60
2024/01/29 08:23:10;;;;;;;10.10;5.33;;;2.20;99.90;;;;;;4228749;27;20268;-60
2024/01/29 08:25:11;;;;;;;12.40;5.63;;;2.20;99.90;;;;;;4227958;28;20260;-61
2024/01/29 08:27:12;;;;;;;13.50;5.03;;;2.40;99.90;;;;;;4227860;28;20309;-59
2024/01/29 08:29:13;;;;;;;9.17;4.80;;;2.30;99.90;;;;;;4228189;27;20317;-60
2024/01/29 08:31:14;;;;;;;10.03;5.57;;;2.20;99.90;;;;;;4227755;28;20256;-60
2024/01/29 08:33:15;;;;;;;8.87;5.07;;;2.10;99.90;;;;;;4228348;28;21049;-62
2024/01/29 08:35:17;;;;;;;13.83;6.03;;;2.20;99.90;;;;;;4227564;28;20388;-57
2024/01/29 08:37:18;;;;;;;10.93;5.20;;;2.30;99.90;;;;;;4228527;28;20264;-60
2024/01/29 08:39:19;;;;;;;10.67;5.13;;;2.40;99.90;;;;;;4227024;28;20682;-59
2024/01/29 08:41:20;;;;;;;8.33;5.17;;;2.40;99.90;;;;;;4228577;28;20755;-60
2024/01/29 08:43:23;;;;;;;9.33;5.60;;;2.30;99.90;;;;;;4227036;28;20745;-60
2024/01/29 08:45:24;;;;;;;18.23;6.97;;;2.20;99.90;;;;;;4228599;27;20272;-59
2024/01/29 08:47:25;;;;;;;11.03;6.27;;;2.30;99.90;;;;;;4227286;28;20272;-59
2024/01/29 08:49:26;;;;;;;14.50;7.53;;;2.20;99.90;;;;;;4228605;28;20288;-60
2024/01/29 08:51:27;;;;;;;13.83;7.27;;;2.20;99.90;;;;;;4227590;27;20345;-58
2024/01/29 08:53:28;;;;;;;11.60;6.83;;;2.20;99.90;;;;;;4228306;28;20264;-60
2024/01/29 08:55:32;;;;;;;13.50;7.47;;;2.20;99.90;;;;;;4227220;28;20639;-59
2024/01/29 08:57:33;;;;;;;13.20;7.40;;;2.20;99.90;;;;;;4227730;28;20310;-59
2024/01/29 08:59:35;;;;;;;11.27;6.70;;;2.30;99.90;;;;;;4227511;27;20345;-59
2024/01/29 09:01:36;;;;;;;14.07;7.70;;;2.50;99.90;;;;;;4227787;28;20602;-60
2024/01/29 09:03:37;;;;;;;10.23;6.30;;;2.70;99.90;;;;;;4227329;28;20329;-59
2024/01/29 09:05:38;;;;;;;8.50;5.47;;;2.70;99.90;;;;;;4227186;28;21104;-60
2024/01/29 09:07:40;;;;;;;10.97;5.87;;;2.70;99.90;;;;;;4228151;28;20272;-59
2024/01/29 09:09:43;;;;;;;12.00;5.87;;;2.80;99.90;;;;;;4227101;27;20272;-60
2024/01/29 09:11:44;;;;;;;11.40;6.27;;;2.90;99.90;;;;;;4228352;28;21163;-60
2024/01/29 09:13:45;;;;;;;10.60;5.53;;;3.20;99.90;;;;;;4226605;28;21197;-58
2024/01/29 09:15:46;;;;;;;9.93;5.60;;;3.20;99.90;;;;;;4227999;28;20801;-60
2024/01/29 09:17:47;;;;;;;8.90;5.27;;;3.20;99.90;;;;;;4226774;28;20256;-60
2024/01/29 09:19:51;;;;;;;10.33;5.37;;;3.00;99.90;;;;;;4232705;28;20601;-60
2024/01/29 09:21:52;;;;;;;9.60;5.10;;;2.90;99.90;;;;;;4232858;27;20291;-60
2024/01/29 09:23:53;;;;;;;10.50;5.10;;;2.80;99.90;;;;;;4233662;27;20264;-60
2024/01/29 09:25:54;;;;;;;9.47;5.17;;;2.90;99.90;;;;;;4232505;27;20276;-60
2024/01/29 09:27:56;;;;;;;7.50;4.83;;;3.00;99.90;;;;;;4233459;27;20268;-59
2024/01/29 09:29:57;;;;;;;17.07;6.67;;;3.40;99.90;;;;;;4232188;27;20260;-59
2024/01/29 09:31:59;;;;;;;11.13;4.93;;;3.40;99.90;;;;;;4233038;28;20657;-61
2024/01/29 09:34:00;;;;;;;11.97;5.47;;;3.30;99.90;;;;;;4232941;27;20309;-59
2024/01/29 09:36:02;;;;;;;12.33;5.23;;;3.30;99.90;;;;;;4232828;27;20670;-59
2024/01/29 09:38:03;;;;;;;11.07;5.63;;;3.20;99.90;;;;;;4232811;27;20687;-60
2024/01/29 09:40:05;;;;;;;9.67;4.77;;;3.10;99.90;;;;;;4232423;27;20309;-60
2024/01/29 09:42:07;;;;;;;11.57;6.00;;;3.10;99.90;;;;;;4233379;27;20305;-61
2024/01/29 09:44:09;;;;;;;10.90;5.60;;;3.00;99.90;;;;;;4232256;28;20321;-61
2024/01/29 09:46:13;;;;;;;8.87;5.40;;;2.80;99.90;;;;;;4233674;27;20280;-60
2024/01/29 09:48:16;;;;;;;10.83;5.30;;;2.70;99.90;;;;;;4232343;27;20271;-61
2024/01/29 09:50:18;;;;;;;10.30;5.53;;;2.70;99.90;;;;;;4233732;27;20340;-61
2024/01/29 09:52:20;;;;;;;12.23;6.07;;;2.70;99.90;;;;;;4232984;27;20661;-59
2024/01/29 09:54:21;;;;;;;7.87;5.00;;;2.70;99.90;;;;;;4233766;27;20733;-59
2024/01/29 09:56:22;;;;;;;10.33;5.50;;;2.60;99.90;;;;;;4232191;28;20256;-60
2024/01/29 09:58:23;;;;;;;12.33;6.23;;;2.60;99.90;;;;;;4232266;27;20611;-60
2024/01/29 10:00:25;;;;;;;11.27;5.53;;;2.80;99.90;;;;;;4232328;28;20728;-60
2024/01/29 10:02:26;;;;;;;8.57;4.00;;;2.70;99.90;;;;;;4233169;28;20785;-59
2024/01/29 10:04:27;;;;;;;7.67;4.60;;;2.80;99.90;;;;;;4231116;27;20300;-61
2024/01/29 10:06:28;;;;;;;9.03;3.83;;;2.50;99.90;;;;;;4232976;28;20293;-60
2024/01/29 10:08:32;;;;;;;7.43;3.40;;;2.50;99.90;;;;;;4231394;28;20767;-60
2024/01/29 10:10:33;;;;;;;3.93;2.87;;;2.50;99.90;;;;;;4232463;27;20268;-61
2024/01/29 10:12:35;;;;;;;8.57;4.10;;;2.40;99.90;;;;;;4231436;28;20256;-60
2024/01/29 10:14:37;;;;;;;5.83;3.13;;;2.40;99.90;;;;;;4232182;28;20260;-60
2024/01/29 10:16:38;;;;;;;7.07;3.83;;;2.40;99.90;;;;;;4233205;28;20272;-60
2024/01/29 10:18:39;;;;;;;7.93;3.17;;;2.40;99.90;;;;;;4232225;27;20341;-61
2024/01/29 10:20:41;;;;;;;6.73;2.97;;;2.50;99.90;;;;;;4233079;28;20313;-61
2024/01/29 10:22:42;;;;;;;5.97;2.90;;;2.60;99.90;;;;;;4232493;27;20332;-60
2024/01/29 10:24:43;;;;;;;5.43;2.70;;;2.70;99.90;;;;;;4233000;28;20744;-57
2024/01/29 10:26:46;;;;;;;4.83;2.60;;;2.70;99.90;;;;;;4232221;27;20601;-59